createdAt,value
2018-01-05T00:02:04.143Z,8.90
2018-01-05T00:04:31.636Z,9.00
2018-01-05T00:06:59.109Z,8.90
2018-01-05T00:09:27.389Z,8.90
2018-01-05T00:11:54.930Z,8.90
2018-01-05T00:14:22.494Z,8.90
2018-01-05T00:16:49.949Z,8.80
2018-01-05T00:19:17.419Z,8.90
2018-01-05T00:21:44.904Z,8.80
2018-01-05T00:24:12.477Z,8.80
2018-01-05T00:26:40.723Z,8.80
2018-01-05T00:29:08.163Z,8.70
2018-01-05T00:31:35.656Z,8.70
2018-01-05T00:34:03.123Z,8.70
2018-01-05T00:36:30.605Z,8.70
2018-01-05T00:38:58.084Z,8.70
2018-01-05T00:41:26.362Z,8.70
2018-01-05T00:43:54.641Z,8.70
2018-01-05T00:46:22.964Z,8.70
2018-01-05T00:48:50.461Z,8.70
2018-01-05T00:51:18.029Z,8.70
2018-01-05T00:53:45.494Z,8.70
2018-01-05T00:56:13.761Z,8.70
2018-01-05T00:58:41.201Z,8.70
2018-01-05T01:01:08.715Z,8.70
2018-01-05T01:03:36.225Z,8.70
2018-01-05T01:06:03.724Z,8.70
2018-01-05T01:08:31.241Z,8.60
2018-01-05T01:10:58.843Z,8.70
2018-01-05T01:13:26.326Z,8.70
2018-01-05T01:15:53.850Z,8.60
2018-01-05T01:18:21.314Z,8.70
2018-01-05T01:20:48.825Z,8.60
2018-01-05T01:23:16.326Z,8.60
2018-01-05T01:25:43.767Z,8.60
2018-01-05T01:28:11.295Z,8.60
2018-01-05T01:30:38.730Z,8.60
2018-01-05T01:33:06.264Z,8.60
2018-01-05T01:35:34.472Z,8.60
2018-01-05T01:38:01.965Z,8.60
2018-01-05T01:40:29.460Z,8.60
2018-01-05T01:42:56.918Z,8.60
2018-01-05T01:45:25.358Z,8.60
2018-01-05T01:47:52.850Z,8.60
2018-01-05T01:50:21.482Z,8.60
2018-01-05T01:52:49.796Z,8.50
2018-01-05T01:55:17.260Z,8.50
2018-01-05T01:57:44.687Z,8.50
2018-01-05T02:00:12.162Z,8.50
2018-01-05T02:02:39.615Z,8.50
2018-01-05T02:05:07.108Z,8.50
2018-01-05T02:07:34.598Z,8.50
2018-01-05T02:10:02.055Z,8.40
2018-01-05T02:12:30.309Z,8.40
2018-01-05T02:14:57.787Z,8.40
2018-01-05T02:19:53.531Z,8.40
2018-01-05T02:22:20.971Z,8.50
2018-01-05T02:24:48.533Z,8.40
2018-01-05T02:27:15.956Z,8.40
2018-01-05T02:29:43.463Z,8.40
2018-01-05T02:32:10.942Z,8.40
2018-01-05T02:34:39.184Z,8.40
2018-01-05T02:37:06.661Z,8.40
2018-01-05T02:39:34.148Z,8.40
2018-01-05T02:42:02.535Z,8.40
2018-01-05T02:44:29.949Z,8.50
2018-01-05T02:46:57.417Z,8.50
2018-01-05T02:49:25.116Z,8.50
2018-01-05T02:51:52.570Z,8.50
2018-01-05T02:54:20.085Z,8.50
2018-01-05T02:56:47.569Z,8.50
2018-01-05T02:59:15.092Z,8.50
2018-01-05T03:01:43.471Z,8.60
2018-01-05T03:04:11.757Z,8.60
2018-01-05T03:06:39.263Z,8.60
2018-01-05T03:09:06.701Z,8.60
2018-01-05T03:11:34.157Z,8.60
2018-01-05T03:14:01.687Z,8.60
2018-01-05T03:16:29.180Z,8.60
2018-01-05T03:18:56.644Z,8.60
2018-01-05T03:21:24.132Z,8.60
2018-01-05T03:23:51.628Z,8.60
2018-01-05T03:26:19.224Z,8.60
2018-01-05T03:28:47.477Z,8.70
2018-01-05T03:31:15.052Z,8.60
2018-01-05T03:33:42.525Z,8.60
2018-01-05T03:36:10.015Z,8.70
2018-01-05T03:38:37.542Z,8.70
2018-01-05T03:41:05.034Z,8.70
2018-01-05T03:43:32.544Z,8.70
2018-01-05T03:46:00.007Z,8.70
2018-01-05T03:48:27.524Z,8.70
2018-01-05T03:50:54.975Z,8.60
2018-01-05T03:53:22.481Z,8.70
2018-01-05T03:55:49.983Z,8.60
2018-01-05T03:58:17.458Z,8.60
2018-01-05T04:00:45.676Z,8.60
2018-01-05T04:03:13.173Z,8.60
2018-01-05T04:05:40.657Z,8.50
2018-01-05T04:08:08.953Z,8.60
2018-01-05T04:10:37.224Z,8.50
2018-01-05T04:13:04.678Z,8.50
2018-01-05T04:15:32.144Z,8.50
2018-01-05T04:18:00.369Z,8.40
2018-01-05T04:20:27.965Z,8.40
2018-01-05T04:22:55.556Z,8.40
2018-01-05T04:25:23.808Z,8.40
2018-01-05T04:27:51.299Z,8.40
2018-01-05T04:30:18.751Z,8.30
2018-01-05T04:32:46.977Z,8.20
2018-01-05T04:35:14.520Z,8.20
2018-01-05T04:37:42.013Z,8.20
2018-01-05T04:40:09.648Z,8.20
2018-01-05T04:42:37.895Z,8.20
2018-01-05T04:45:05.348Z,8.10
2018-01-05T04:47:32.834Z,8.20
2018-01-05T04:50:01.065Z,8.20
2018-01-05T04:52:28.556Z,8.20
2018-01-05T04:54:56.027Z,8.30
2018-01-05T04:57:24.295Z,8.30
2018-01-05T04:59:51.782Z,8.30
2018-01-05T05:02:20.013Z,8.20
2018-01-05T05:04:47.482Z,8.20
2018-01-05T05:07:14.934Z,8.20
2018-01-05T05:09:42.428Z,8.20
2018-01-05T05:12:09.912Z,8.20
2018-01-05T05:14:37.357Z,8.30
2018-01-05T05:17:04.864Z,8.30
2018-01-05T05:19:32.308Z,8.20
2018-01-05T05:21:59.812Z,8.30
2018-01-05T05:24:27.291Z,8.20
2018-01-05T05:26:54.764Z,8.20
2018-01-05T05:29:22.247Z,8.20
2018-01-05T05:31:50.498Z,8.10
2018-01-05T05:34:17.945Z,8.10
2018-01-05T05:36:45.403Z,8.10
2018-01-05T05:39:12.886Z,8.10
2018-01-05T05:41:40.356Z,8.00
2018-01-05T05:44:07.834Z,8.00
2018-01-05T05:46:36.143Z,8.10
2018-01-05T05:49:03.557Z,8.00
2018-01-05T05:51:31.129Z,8.10
2018-01-05T05:53:59.303Z,8.20
2018-01-05T05:56:26.754Z,8.20
2018-01-05T05:58:54.326Z,8.20
2018-01-05T06:01:21.775Z,8.30
2018-01-05T06:03:49.231Z,8.40
2018-01-05T06:06:16.720Z,8.40
2018-01-05T06:08:44.196Z,8.40
2018-01-05T06:11:12.479Z,8.70
2018-01-05T06:13:40.754Z,8.80
2018-01-05T06:16:08.972Z,8.90
2018-01-05T06:18:36.463Z,8.80
2018-01-05T06:21:03.929Z,8.90
2018-01-05T06:23:31.392Z,9.00
2018-01-05T06:25:58.867Z,9.10
2018-01-05T06:28:26.374Z,9.10
2018-01-05T06:30:53.852Z,9.10
2018-01-05T06:33:21.497Z,9.10
2018-01-05T06:35:49.084Z,9.10
2018-01-05T06:38:16.570Z,9.20
2018-01-05T06:40:44.065Z,9.20
2018-01-05T06:43:12.287Z,9.20
2018-01-05T06:45:39.757Z,9.10
2018-01-05T06:48:07.290Z,9.20
2018-01-05T06:50:35.559Z,9.10
2018-01-05T06:53:03.796Z,9.10
2018-01-05T06:55:31.314Z,9.10
2018-01-05T06:57:58.754Z,9.10
2018-01-05T07:00:27.497Z,9.10
2018-01-05T07:02:54.957Z,9.10
2018-01-05T07:05:22.443Z,9.10
2018-01-05T07:07:49.902Z,9.10
2018-01-05T07:10:17.370Z,9.10
2018-01-05T07:12:44.856Z,9.10
2018-01-05T07:15:12.370Z,9.10
2018-01-05T07:17:39.846Z,9.10
2018-01-05T07:20:07.292Z,9.10
2018-01-05T07:22:34.848Z,9.10
2018-01-05T07:25:02.284Z,9.10
2018-01-05T07:27:30.681Z,9.10
2018-01-05T07:29:58.264Z,9.10
2018-01-05T07:32:25.696Z,9.10
2018-01-05T07:34:53.962Z,9.10
2018-01-05T07:37:21.547Z,9.00
2018-01-05T07:39:49.840Z,9.00
2018-01-05T07:42:18.046Z,9.00
2018-01-05T07:44:45.542Z,9.00
2018-01-05T07:47:13.049Z,9.00
2018-01-05T07:49:40.568Z,9.00
2018-01-05T07:52:08.030Z,8.90
2018-01-05T07:54:36.308Z,8.90
2018-01-05T07:57:03.833Z,8.90
2018-01-05T07:59:34.196Z,8.90
2018-01-05T08:02:01.683Z,8.90
2018-01-05T08:04:29.172Z,9.00
2018-01-05T08:06:56.652Z,9.00
2018-01-05T08:09:24.882Z,9.00
2018-01-05T08:11:52.336Z,9.00
2018-01-05T08:14:19.826Z,9.00
2018-01-05T08:16:48.107Z,9.10
2018-01-05T08:19:16.368Z,9.10
2018-01-05T08:21:43.964Z,9.10
2018-01-05T08:24:11.460Z,9.10
2018-01-05T08:26:39.021Z,9.10
2018-01-05T08:29:06.489Z,9.10
2018-01-05T08:31:33.962Z,9.10
2018-01-05T08:34:01.471Z,9.10
2018-01-05T08:36:29.756Z,9.10
2018-01-05T08:38:57.248Z,9.10
2018-01-05T08:41:24.748Z,9.10
2018-01-05T08:43:52.170Z,9.10
2018-01-05T08:46:19.800Z,9.10
2018-01-05T08:48:48.057Z,9.10
2018-01-05T08:51:15.541Z,9.10
2018-01-05T08:53:43.778Z,9.10
2018-01-05T08:56:11.263Z,9.10
2018-01-05T08:58:38.769Z,9.10
2018-01-05T09:01:06.965Z,9.00
2018-01-05T09:03:34.489Z,9.00
2018-01-05T09:06:01.938Z,9.00
2018-01-05T09:08:29.418Z,9.10
2018-01-05T09:10:57.667Z,9.10
2018-01-05T09:13:25.118Z,9.10
2018-01-05T09:15:52.737Z,9.10
2018-01-05T09:18:20.149Z,9.20
2018-01-05T09:20:47.639Z,9.20
2018-01-05T09:23:15.861Z,9.20
2018-01-05T09:25:43.449Z,9.10
2018-01-05T09:28:10.896Z,9.20
2018-01-05T09:30:38.406Z,9.20
2018-01-05T09:33:05.884Z,9.30
2018-01-05T09:35:33.449Z,9.20
2018-01-05T09:38:00.923Z,9.30
2018-01-05T09:40:28.413Z,9.40
2018-01-05T09:42:55.887Z,9.40
2018-01-05T09:45:23.372Z,9.50
2018-01-05T09:47:50.830Z,9.50
2018-01-05T09:50:18.334Z,9.40
2018-01-05T09:52:45.817Z,9.40
2018-01-05T09:55:13.323Z,9.40
2018-01-05T09:57:41.078Z,9.40
2018-01-05T10:00:08.535Z,9.40
2018-01-05T10:02:36.013Z,9.50
2018-01-05T10:05:03.543Z,9.40
2018-01-05T10:07:31.023Z,9.50
2018-01-05T10:09:58.540Z,9.50
2018-01-05T10:12:25.996Z,9.50
2018-01-05T10:14:54.268Z,9.50
2018-01-05T10:17:22.569Z,9.50
2018-01-05T10:19:50.015Z,9.50
2018-01-05T10:22:17.529Z,9.50
2018-01-05T10:24:44.981Z,9.50
2018-01-05T10:27:12.500Z,9.60
2018-01-05T10:29:39.948Z,9.60
2018-01-05T10:32:07.502Z,9.60
2018-01-05T10:34:35.012Z,9.60
2018-01-05T10:37:02.425Z,9.70
2018-01-05T10:39:29.965Z,9.60
2018-01-05T10:41:58.669Z,9.70
2018-01-05T10:44:26.238Z,9.60
2018-01-05T10:46:53.686Z,9.60
2018-01-05T10:49:21.186Z,9.70
2018-01-05T10:51:48.985Z,9.60
2018-01-05T10:54:16.455Z,9.60
2018-01-05T10:56:43.939Z,9.60
2018-01-05T10:59:11.466Z,9.70
2018-01-05T11:01:38.945Z,9.70
2018-01-05T11:04:06.453Z,9.70
2018-01-05T11:06:33.953Z,9.70
2018-01-05T11:09:02.180Z,9.80
2018-01-05T11:11:29.677Z,9.80
2018-01-05T11:13:57.924Z,9.80
2018-01-05T11:16:25.417Z,9.70
2018-01-05T11:18:52.901Z,9.80
2018-01-05T11:21:21.166Z,9.80
2018-01-05T11:23:49.423Z,9.70
2018-01-05T11:26:16.873Z,9.70
2018-01-05T11:28:44.486Z,9.70
2018-01-05T11:31:12.831Z,9.70
2018-01-05T11:33:40.257Z,9.70
2018-01-05T11:36:07.742Z,9.80
2018-01-05T11:38:35.199Z,9.80
2018-01-05T11:41:02.690Z,9.90
2018-01-05T11:43:30.180Z,9.90
2018-01-05T11:45:58.395Z,9.90
2018-01-05T11:48:25.857Z,9.80
2018-01-05T11:50:53.334Z,9.80
2018-01-05T11:53:20.843Z,9.90
2018-01-05T11:55:49.106Z,9.90
2018-01-05T11:58:16.612Z,9.90
2018-01-05T12:00:44.117Z,9.90
2018-01-05T12:03:11.622Z,9.90
2018-01-05T12:05:39.077Z,9.80
2018-01-05T12:08:06.575Z,9.70
2018-01-05T12:10:34.079Z,9.70
2018-01-05T12:13:01.604Z,9.70
2018-01-05T12:15:29.094Z,9.80
2018-01-05T12:17:56.585Z,9.80
2018-01-05T12:20:24.072Z,9.80
2018-01-05T12:22:51.514Z,9.80
2018-01-05T12:25:19.750Z,9.80
2018-01-05T12:27:47.292Z,9.80
2018-01-05T12:30:14.825Z,9.80
2018-01-05T12:32:43.088Z,9.80
2018-01-05T12:35:10.531Z,9.80
2018-01-05T12:37:38.008Z,9.90
2018-01-05T12:40:05.495Z,9.90
2018-01-05T12:42:33.124Z,9.90
2018-01-05T12:45:00.680Z,9.90
2018-01-05T12:47:28.082Z,9.90
2018-01-05T12:49:56.323Z,9.80
2018-01-05T12:52:23.796Z,9.90
2018-01-05T12:54:51.295Z,9.90
2018-01-05T12:57:18.756Z,9.90
2018-01-05T12:59:46.217Z,9.90
2018-01-05T13:02:13.932Z,9.90
2018-01-05T13:04:41.399Z,9.90
2018-01-05T13:07:08.970Z,9.80
2018-01-05T13:09:36.475Z,9.80
2018-01-05T13:12:04.729Z,9.90
2018-01-05T13:14:32.211Z,9.90
2018-01-05T13:16:59.889Z,10.00
2018-01-05T13:19:27.397Z,9.90
2018-01-05T13:21:54.885Z,9.90
2018-01-05T13:24:22.342Z,9.90
2018-01-05T13:26:49.890Z,9.80
2018-01-05T13:29:17.369Z,9.80
2018-01-05T13:31:44.914Z,9.80
2018-01-05T13:34:12.404Z,9.80
2018-01-05T13:36:39.926Z,9.80
2018-01-05T13:39:08.116Z,9.90
2018-01-05T13:41:35.712Z,9.80
2018-01-05T13:44:03.170Z,9.80
2018-01-05T13:46:30.632Z,9.80
2018-01-05T13:48:58.196Z,9.80
2018-01-05T13:51:25.713Z,9.80
2018-01-05T13:53:53.140Z,9.80
2018-01-05T13:56:21.475Z,9.80
2018-01-05T13:58:49.658Z,9.80
2018-01-05T14:01:17.197Z,9.80
2018-01-05T14:03:44.626Z,9.80
2018-01-05T14:06:12.904Z,9.80
2018-01-05T14:08:41.120Z,9.70
2018-01-05T14:11:08.632Z,9.70
2018-01-05T14:13:36.126Z,9.70
2018-01-05T14:16:03.560Z,9.70
2018-01-05T14:18:31.424Z,9.80
2018-01-05T14:20:58.860Z,9.70
2018-01-05T14:23:26.369Z,9.70
2018-01-05T14:25:54.602Z,9.70
2018-01-05T14:28:22.067Z,9.60
2018-01-05T14:30:49.577Z,9.60
2018-01-05T14:33:17.842Z,9.60
2018-01-05T14:35:45.306Z,9.60
2018-01-05T14:38:12.788Z,9.60
2018-01-05T14:40:41.087Z,9.60
2018-01-05T14:43:09.385Z,9.60
2018-01-05T14:45:36.839Z,9.60
2018-01-05T14:48:04.256Z,9.60
2018-01-05T14:50:31.761Z,9.60
2018-01-05T14:52:59.226Z,9.50
2018-01-05T14:55:26.843Z,9.50
2018-01-05T14:57:55.053Z,9.60
2018-01-05T15:00:23.315Z,9.60
2018-01-05T15:02:50.798Z,9.60
2018-01-05T15:05:19.021Z,9.70
2018-01-05T15:07:46.509Z,9.70
2018-01-05T15:10:13.982Z,9.70
2018-01-05T15:12:41.476Z,9.60
2018-01-05T15:15:08.953Z,9.70
2018-01-05T15:17:36.440Z,9.70
2018-01-05T15:20:03.943Z,9.60
2018-01-05T15:22:31.377Z,9.70
2018-01-05T15:24:58.927Z,9.60
2018-01-05T15:27:26.362Z,9.60
2018-01-05T15:29:53.924Z,9.60
2018-01-05T15:32:21.409Z,9.60
2018-01-05T15:34:48.941Z,9.70
2018-01-05T15:37:17.175Z,9.60
2018-01-05T15:39:44.662Z,9.60
2018-01-05T15:42:12.896Z,9.60
2018-01-05T15:44:40.380Z,9.60
2018-01-05T15:47:07.881Z,9.60
2018-01-05T15:49:36.105Z,9.70
2018-01-05T15:52:03.681Z,9.70
2018-01-05T15:54:31.124Z,9.70
2018-01-05T15:56:58.636Z,9.60
2018-01-05T15:59:26.870Z,9.60
2018-01-05T16:01:54.404Z,9.60
2018-01-05T16:04:21.870Z,9.60
2018-01-05T16:06:49.323Z,9.60
2018-01-05T16:09:16.863Z,9.60
2018-01-05T16:11:44.305Z,9.60
2018-01-05T16:14:11.800Z,9.50
2018-01-05T16:16:39.380Z,9.50
2018-01-05T16:19:06.837Z,9.50
2018-01-05T16:21:35.056Z,9.60
2018-01-05T16:24:02.560Z,9.60
2018-01-05T16:26:30.811Z,9.60
2018-01-05T16:28:58.299Z,9.60
2018-01-05T16:31:26.007Z,9.60
2018-01-05T16:33:53.446Z,9.70
2018-01-05T16:36:21.754Z,9.80
2018-01-05T16:38:49.950Z,9.80
2018-01-05T16:41:17.426Z,9.80
2018-01-05T16:43:44.911Z,9.80
2018-01-05T16:46:12.414Z,9.80
2018-01-05T16:48:39.938Z,9.80
2018-01-05T16:51:07.440Z,9.80
2018-01-05T16:53:34.894Z,9.80
2018-01-05T16:56:02.486Z,9.80
2018-01-05T16:58:30.679Z,9.80
2018-01-05T17:00:58.167Z,9.80
2018-01-05T17:03:25.645Z,9.80
2018-01-05T17:05:53.895Z,9.70
2018-01-05T17:08:21.419Z,9.70
2018-01-05T17:10:48.813Z,9.70
2018-01-05T17:13:16.361Z,9.80
2018-01-05T17:15:43.828Z,9.70
2018-01-05T17:18:11.342Z,9.70
2018-01-05T17:20:39.703Z,9.60
2018-01-05T17:23:07.162Z,9.60
2018-01-05T17:25:34.685Z,9.60
2018-01-05T17:28:02.837Z,9.60
2018-01-05T17:30:30.640Z,9.60
2018-01-05T17:32:58.772Z,9.60
2018-01-05T17:35:26.192Z,9.60
2018-01-05T17:37:53.717Z,9.60
2018-01-05T17:40:21.937Z,9.60
2018-01-05T17:42:49.429Z,9.60
2018-01-05T17:45:16.968Z,9.60
2018-01-05T17:47:44.429Z,9.60
2018-01-05T17:50:11.912Z,9.60
2018-01-05T17:52:39.389Z,9.60
2018-01-05T17:55:07.719Z,9.70
2018-01-05T17:57:35.176Z,9.70
2018-01-05T18:00:03.452Z,9.90
2018-01-05T18:02:30.977Z,9.80
2018-01-05T18:04:58.523Z,9.90
2018-01-05T18:07:26.778Z,10.00
2018-01-05T18:09:55.030Z,10.00
2018-01-05T18:12:22.494Z,10.00
2018-01-05T18:14:50.069Z,10.00
2018-01-05T18:17:17.474Z,10.00
2018-01-05T18:19:44.962Z,9.90
2018-01-05T18:22:12.452Z,9.90
2018-01-05T18:24:39.950Z,9.80
2018-01-05T18:27:08.237Z,9.80
2018-01-05T18:29:35.739Z,9.80
2018-01-05T18:32:03.228Z,9.80
2018-01-05T18:34:30.708Z,9.80
2018-01-05T18:36:58.171Z,9.70
2018-01-05T18:39:26.431Z,9.60
2018-01-05T18:41:56.678Z,9.60
2018-01-05T18:44:24.115Z,9.50
2018-01-05T18:46:51.618Z,9.60
2018-01-05T18:49:19.097Z,9.60
2018-01-05T18:51:46.541Z,9.50
2018-01-05T18:54:14.052Z,9.60
2018-01-05T18:56:41.529Z,9.50
2018-01-05T18:59:08.995Z,9.50
2018-01-05T19:01:36.509Z,9.60
2018-01-05T19:04:04.014Z,9.60
2018-01-05T19:06:31.522Z,9.50
2018-01-05T19:08:58.959Z,9.50
2018-01-05T19:11:26.442Z,9.30
2018-01-05T19:13:54.652Z,9.40
2018-01-05T19:16:22.163Z,9.40
2018-01-05T19:18:50.371Z,9.40
2018-01-05T19:21:17.901Z,9.40
2018-01-05T19:23:45.350Z,9.40
2018-01-05T19:26:12.789Z,9.30
2018-01-05T19:28:40.256Z,9.30
2018-01-05T19:31:07.828Z,9.30
2018-01-05T19:33:35.268Z,9.30
2018-01-05T19:36:02.752Z,9.30
2018-01-05T19:38:30.233Z,9.40
2018-01-05T19:40:57.696Z,9.30
2018-01-05T19:43:25.218Z,9.40
2018-01-05T19:45:52.698Z,9.30
2018-01-05T19:48:20.141Z,9.30
2018-01-05T19:50:47.635Z,9.30
2018-01-05T19:53:15.132Z,9.40
2018-01-05T19:55:43.448Z,9.30
2018-01-05T19:58:10.945Z,9.30
2018-01-05T20:00:38.426Z,9.30
2018-01-05T20:03:05.924Z,9.30
2018-01-05T20:05:33.413Z,9.30
2018-01-05T20:08:00.873Z,9.30
2018-01-05T20:10:28.592Z,9.30
2018-01-05T20:12:56.818Z,9.40
2018-01-05T20:15:24.386Z,9.40
2018-01-05T20:17:51.855Z,9.40
2018-01-05T20:20:19.352Z,9.40
2018-01-05T20:22:46.906Z,9.40
2018-01-05T20:25:14.324Z,9.50
2018-01-05T20:27:41.796Z,9.50
2018-01-05T20:30:09.414Z,9.50
2018-01-05T20:32:37.714Z,9.60
2018-01-05T20:35:05.262Z,9.60
2018-01-05T20:37:33.605Z,9.80
2018-01-05T20:40:01.232Z,9.80
2018-01-05T20:42:28.692Z,9.70
2018-01-05T20:44:56.313Z,9.60
2018-01-05T20:47:23.802Z,9.70
2018-01-05T20:49:52.044Z,9.70
2018-01-05T20:52:19.524Z,9.70
2018-01-05T20:54:47.866Z,9.60
2018-01-05T20:57:15.311Z,9.60
2018-01-05T20:59:42.801Z,9.60
2018-01-05T21:02:10.321Z,9.40
2018-01-05T21:04:38.647Z,9.30
2018-01-05T21:07:06.106Z,9.20
2018-01-05T21:09:33.806Z,9.10
2018-01-05T21:12:01.275Z,9.10
2018-01-05T21:14:28.889Z,9.10
2018-01-05T21:16:56.356Z,9.00
2018-01-05T21:19:24.307Z,9.00
2018-01-05T21:21:51.758Z,8.90
2018-01-05T21:24:19.236Z,8.90
2018-01-05T21:26:46.717Z,8.90
2018-01-05T21:29:14.259Z,8.90
2018-01-05T21:31:41.713Z,8.90
2018-01-05T21:34:09.231Z,8.80
2018-01-05T21:36:36.699Z,8.80
2018-01-05T21:39:04.563Z,8.80
2018-01-05T21:41:32.045Z,8.80
2018-01-05T21:43:59.553Z,8.80
2018-01-05T21:46:27.016Z,8.70
2018-01-05T21:48:54.529Z,8.70
2018-01-05T21:51:21.986Z,8.70
2018-01-05T21:53:49.453Z,8.70
2018-01-05T21:56:16.953Z,8.80
2018-01-05T21:58:44.396Z,8.80
2018-01-05T22:01:12.672Z,8.70
2018-01-05T22:03:40.141Z,8.70
2018-01-05T22:06:07.621Z,8.60
2018-01-05T22:08:35.153Z,8.60
2018-01-05T22:11:02.617Z,8.50
2018-01-05T22:13:30.030Z,8.60
2018-01-05T22:15:57.565Z,8.60
2018-01-05T22:18:25.789Z,8.50
2018-01-05T22:20:53.280Z,8.50
2018-01-05T22:23:20.824Z,8.40
2018-01-05T22:25:48.301Z,8.40
2018-01-05T22:28:15.857Z,8.40
2018-01-05T22:30:43.373Z,8.40
2018-01-05T22:33:10.940Z,8.30
2018-01-05T22:35:38.469Z,8.20
2018-01-05T22:38:05.970Z,8.20
2018-01-05T22:40:33.448Z,8.30
2018-01-05T22:43:00.960Z,8.20
2018-01-05T22:45:28.415Z,8.20
2018-01-05T22:47:55.881Z,8.20
2018-01-05T22:50:24.138Z,8.30
2018-01-05T22:52:51.617Z,8.30
2018-01-05T22:55:19.090Z,8.30
2018-01-05T22:57:46.573Z,8.20
2018-01-05T23:00:14.841Z,8.00
2018-01-05T23:02:43.096Z,8.00
2018-01-05T23:05:10.568Z,8.00
2018-01-05T23:07:38.431Z,8.00
2018-01-05T23:10:05.848Z,7.90
2018-01-05T23:12:33.342Z,8.00
2018-01-05T23:15:00.813Z,7.90
2018-01-05T23:17:28.723Z,8.00
2018-01-05T23:19:56.178Z,7.80
2018-01-05T23:22:24.439Z,8.00
2018-01-05T23:24:51.880Z,8.00
2018-01-05T23:27:19.371Z,8.00
2018-01-05T23:29:46.841Z,7.90
2018-01-05T23:32:14.381Z,7.80
2018-01-05T23:34:41.887Z,7.90
2018-01-05T23:37:09.344Z,7.80
2018-01-05T23:39:37.603Z,7.90
2018-01-05T23:42:05.158Z,7.90
2018-01-05T23:44:32.619Z,7.90
2018-01-05T23:47:00.082Z,7.80
2018-01-05T23:49:27.559Z,7.80
2018-01-05T23:51:55.043Z,7.80
2018-01-05T23:54:22.536Z,7.80
2018-01-05T23:56:49.987Z,7.80
2018-01-05T23:59:17.437Z,7.70
